Toonerville, Kentucky
Current Conditions -  °F | °C
As of 10:55 AM on Sunday 23 Nov 2014 (Local Time) from KPBX Reporting Station
Scattered Clouds Scattered Clouds  
Wind Chill: 59°   Ceiling: Unl
Heat Index: 59°   Visibility: 10mi
Dew Point: 42°   Wind: 5mph
Humidity: 52%   Direction: 150°SSE
Pressure: 29.99"   Gusts: 9mph
Location:  37.3644°N, 82.2792°W
Report Text: KPBX 231555Z AUTO 15004G08KT 10SM SCT085 15/05 A2999 RMK AO2 T01500053
Loading
Personal Weather Stations






























Interactive Weather Map New forecast layout! Learn more

10-Day Weather Forecast

Advertisements
Track Severe Weather on mobile